Historyczne dane pomiarowe

Dodano dane terminowe – wersja testowa.

Dane z okresu 1951-2019

Wersja bazy: 1.34 [2019-03-16, lista zmian], aktualizacja planowana na 2019-04-15

Dane meteo z obszaru Polski uzyskane na podstawie danych udostępnionych przez Instytut Meteorologii i Gospodarki Wodnej – Państwowy Instytut Badawczy.

 

Wybierz Datę:    

       

TemperaturaWilgotnośćWiatrCiśnienieOpadyŚniegCzas trwania zjawisk
 Stacja t tx tn tng RH VA  wxwx mslp ppp RRR   cm mm wxwxwxwxwxwxwx
1999-08-14 15.0 21.1 6.5 6.1 67.0- 3.0 1.0---- 0.4------------
1999-08-13 13.5 17.5 9.9 7.7 79.8- 4.3 2.0---- 0.0------------
1999-08-12 13.2 17.1 8.9 5.0 82.0- 7.7 1.3---- 0.0------------
1999-08-11 16.6 21.4 13.0 8.7 92.0- 6.7 2.3---- 0.5------------
1999-08-10 18.5 23.0 15.1 10.5 87.5- 7.7 1.0---- 4.4------------
1999-08-09 19.6 24.0 14.7 10.1 84.8- 6.3 1.0---- 2.7------------
1999-08-08 20.8 28.4 14.3 10.8 82.0- 3.3 0.7---- 0.0------------
1999-08-07 20.1 28.4 11.9 8.8 85.3- 6.0 0.3---- 0.1------------
1999-08-06 19.8 25.2 13.5 9.7 82.3- 3.7 1.0---- 0.0------------
1999-08-05 17.7 26.0 8.8 5.1 74.3- 5.7 0.7---- 0.0------------
1999-08-04 17.5 25.2 9.1 5.3 71.3- 3.3 0.7---- 0.0------------
1999-08-03 16.4 24.7 7.0 4.3 81.3- 2.0 0.3---- 0.0------------
1999-08-02 15.5 24.0 8.6 6.1 84.3- 3.3 0.0---- 0.0------------
1999-08-01 17.4 24.5 7.9 4.9 75.5- 2.0 1.0---- 0.0------------
1999-07-31 17.8 25.0 7.9 5.7 79.8- 2.3 1.0---- 0.0------------
1999-07-30 16.8 23.6 7.5 4.3 83.0- 2.3 0.7---- 0.0------------
1999-07-29 16.6 23.4 7.5 5.1 84.0- 3.3 1.0---- 0.0------------
1999-07-28 16.6 23.0 7.5 5.1 78.0- 1.7 1.3---- 0.0------------
1999-07-27 16.3 21.1 12.5 12.2 81.8- 6.3 1.0---- 0.0------------
1999-07-26 18.2 25.9 9.1 6.7 83.3- 3.0 0.7---- 0.0------------
1999-07-25 16.4 23.8 7.5 5.1 82.5- 4.7 0.3---- 0.0------------
1999-07-24 14.5 18.6 11.0 8.1 89.0- 7.3 1.0---- 0.0------------
1999-07-23 14.2 18.1 11.8 8.0 85.8- 7.7 1.0---- 0.9------------
1999-07-22 16.3 22.3 11.8 8.7 84.0- 5.7 1.0---- 0.0------------
1999-07-21 20.7 25.5 15.6 12.2 73.3- 5.0 1.3---- 2.0------------
1999-07-20 21.8 29.3 13.5 8.7 65.3- 1.7 1.0---- 0.6------------
1999-07-19 21.4 27.9 11.0 7.8 71.3- 1.0 0.0---- 0.0------------
1999-07-18 19.7 26.4 10.0 7.7 74.5- 1.3 0.0---- 0.0------------
1999-07-17 17.0 23.0 7.5 5.3 88.0- 1.7 0.3---- 0.0------------
1999-07-16 14.8 20.1 8.5 5.8 84.8- 3.7 1.0---- 0.0------------
1999-07-15 14.6 18.1 11.9 8.1 85.5- 7.7 1.3---- 0.0------------
1999-07-14 18.9 22.5 16.5 13.7 82.8- 7.0 1.3---- 1.7------------
1999-07-13 20.5 25.1 14.5 13.0 78.3- 3.3 1.0---- 0.4------------
1999-07-12 19.7 25.6 14.2 12.3 89.5- 5.7 0.7---- 0.2------------
1999-07-11 17.8 20.8 14.1 10.9 88.5- 6.7 1.3---- 7.3------------
1999-07-10 19.0 23.2 15.1 13.4 85.8- 6.0 1.3---- 0.0------------
1999-07-09 15.6 17.6 12.8 11.9 98.5- 8.0 0.7---- 2.0------------
1999-07-08 13.7 14.6 12.7 12.0 98.3- 8.0 1.0---- 6.9------------
1999-07-07 16.4 19.7 14.4 14.2 96.5- 7.7 1.0---- 1.0------------
1999-07-06 22.1 26.4 18.2 15.2 82.5- 6.7 0.7---- 51.3------------
1999-07-05 24.6 29.7 18.1 13.7 60.0- 1.3 2.0---- 0.0------------
1999-07-04 24.8 30.4 19.6 14.8 71.0- 0.3 0.3---- 0.0------------
1999-07-03 19.5 25.6 10.1 7.1 70.5- 1.3 1.0---- 0.0------------
1999-07-02 17.3 20.7 11.5 9.2 75.5- 4.7 0.7---- 4.0------------
1999-07-01 16.9 20.7 11.9 10.3 85.0- 6.7 1.3---- 9.8------------
1999-06-30 18.2 24.2 9.3 7.1 70.3- 1.7 0.0---- 0.0------------
1999-06-29 17.3 22.0 10.4 6.5 61.5- 3.0 0.7---- 0.0------------
1999-06-28 17.9 24.0 12.2 8.7 73.0- 4.7 1.3---- 3.4------------
1999-06-27 17.1 21.5 13.4 9.2 74.3- 7.3 1.3---- 2.4------------
1999-06-26 15.1 22.1 6.0 3.5 75.0- 3.3 1.3---- 0.0------------
1999-06-25 11.6 16.4 6.8 4.6 74.8- 5.3 0.3---- 1.5------------
1999-06-24 10.8 15.6 3.4 0.5 74.0- 6.0 0.0---- 0.3------------
1999-06-23 11.3 15.1 7.6 6.1 73.0- 5.0 1.7---- 0.0------------
1999-06-22 9.0 11.4 7.5 5.6 95.0- 8.0 2.3---- 11.6------------
1999-06-21 13.8 18.7 9.9 7.3 84.0- 8.0 1.0---- 14.1------------
1999-06-20 16.6 22.3 9.6 6.0 68.8- 3.3 1.0---- 0.0------------
1999-06-19 14.6 18.7 11.9 9.7 89.8- 7.7 1.0---- 0.0------------
1999-06-18 14.0 17.7 10.5 7.9 89.8- 8.0 1.7---- 21.3------------
1999-06-17 16.9 20.6 13.3 11.9 82.5- 7.3 1.0---- 0.0------------
1999-06-16 15.2 19.2 11.4 9.6 88.5- 8.0 0.7---- 0.0------------
258.0 ms

 

Źródłem pochodzenia danych jest Instytut Meteorologii i Gospodarki Wodnej – Państwowy Instytut Badawczy. Dane Instytutu Meteorologii i Gospodarki Wodnej – Państwowego Instytutu Badawczego zostały przetworzone.

Dane źródłowe można odnaleźć na stronie https://dane.imgw.pl